createdAt,value
2018-09-12T00:00:03.476Z,0
2018-09-12T00:01:03.727Z,0
2018-09-12T00:02:03.718Z,0
2018-09-12T00:03:03.976Z,0
2018-09-12T00:04:03.197Z,0
2018-09-12T00:05:03.701Z,0
2018-09-12T00:06:03.442Z,0
2018-09-12T00:07:03.960Z,0
2018-09-12T00:08:03.940Z,0
2018-09-12T00:09:03.937Z,0
2018-09-12T00:10:03.680Z,0
2018-09-12T00:11:03.944Z,0
2018-09-12T00:12:03.659Z,0
2018-09-12T00:13:03.665Z,0
2018-09-12T00:14:03.656Z,0
2018-09-12T00:15:03.645Z,0
2018-09-12T00:16:03.642Z,0
2018-09-12T00:17:03.645Z,0
2018-09-12T00:18:03.631Z,0
2018-09-12T00:19:03.880Z,0
2018-09-12T00:20:03.619Z,0
2018-09-12T00:21:03.715Z,0
2018-09-12T00:22:03.874Z,0
2018-09-12T00:23:03.348Z,0
2018-09-12T00:24:03.853Z,0
2018-09-12T00:25:03.595Z,0
2018-09-12T00:26:03.845Z,0
2018-09-12T00:27:03.841Z,0
2018-09-12T00:28:03.830Z,0
2018-09-12T00:29:03.833Z,0
2018-09-12T00:30:03.579Z,0
2018-09-12T00:31:03.554Z,0
2018-09-12T00:32:03.819Z,0
2018-09-12T00:33:03.551Z,0
2018-09-12T00:34:03.799Z,0
2018-09-12T00:35:03.800Z,0
2018-09-12T00:36:03.542Z,0
2018-09-12T00:37:03.274Z,0
2018-09-12T00:38:03.776Z,0
2018-09-12T00:39:03.789Z,0
2018-09-12T00:40:03.509Z,0
2018-09-12T00:41:03.507Z,0
2018-09-12T00:42:03.507Z,0
2018-09-12T00:43:03.751Z,0
2018-09-12T00:44:03.483Z,0
2018-09-12T00:45:03.494Z,0
2018-09-12T00:46:03.739Z,0
2018-09-12T00:47:03.468Z,0
2018-09-12T00:48:03.212Z,0
2018-09-12T00:49:03.721Z,0
2018-09-12T00:50:03.452Z,0
2018-09-12T00:51:03.202Z,0
2018-09-12T00:52:03.183Z,0
2018-09-12T00:53:03.697Z,0
2018-09-12T00:54:03.434Z,0
2018-09-12T00:55:03.430Z,0
2018-09-12T00:56:03.684Z,0
2018-09-12T00:57:03.411Z,0
2018-09-12T00:58:03.153Z,0
2018-09-12T00:59:03.148Z,0
2018-09-12T01:00:03.420Z,0
2018-09-12T01:01:03.401Z,0
2018-09-12T01:02:03.645Z,0
2018-09-12T01:03:03.658Z,0
2018-09-12T01:04:03.117Z,0
2018-09-12T01:05:03.645Z,0
2018-09-12T01:06:03.362Z,0
2018-09-12T01:07:03.616Z,0
2018-09-12T01:08:03.613Z,0
2018-09-12T01:09:03.616Z,0
2018-09-12T01:10:03.343Z,0
2018-09-12T01:11:03.594Z,0
2018-09-12T01:12:03.591Z,0
2018-09-12T01:13:03.077Z,0
2018-09-12T01:14:03.105Z,0
2018-09-12T01:15:03.365Z,0
2018-09-12T01:16:03.051Z,0
2018-09-12T01:17:03.305Z,0
2018-09-12T01:18:03.555Z,0
2018-09-12T01:19:03.561Z,0
2018-09-12T01:20:03.293Z,0
2018-09-12T01:21:03.540Z,0
2018-09-12T01:22:03.017Z,0
2018-09-12T01:23:03.018Z,0
2018-09-12T01:24:03.539Z,0
2018-09-12T01:25:03.517Z,0
2018-09-12T01:26:03.254Z,0
2018-09-12T01:27:03.509Z,0
2018-09-12T01:28:03.244Z,0
2018-09-12T01:29:03.241Z,0
2018-09-12T01:30:03.231Z,0
2018-09-12T01:31:03.484Z,0
2018-09-12T01:32:03.472Z,0
2018-09-12T01:33:03.471Z,0
2018-09-12T01:34:03.205Z,0
2018-09-12T01:35:03.215Z,0
2018-09-12T01:36:03.209Z,0
2018-09-12T01:37:03.194Z,0
2018-09-12T01:38:03.190Z,0
2018-09-12T01:39:03.235Z,0
2018-09-12T01:40:02.921Z,0
2018-09-12T01:41:02.909Z,0
2018-09-12T01:42:03.422Z,0
2018-09-12T01:43:03.425Z,0
2018-09-12T01:44:03.158Z,0
2018-09-12T01:45:03.408Z,0
2018-09-12T01:46:03.154Z,0
2018-09-12T01:47:03.141Z,0
2018-09-12T01:48:03.138Z,0
2018-09-12T01:49:03.391Z,0
2018-09-12T01:50:03.387Z,0
2018-09-12T01:51:03.119Z,0
2018-09-12T01:52:03.368Z,0
2018-09-12T01:53:03.366Z,0
2018-09-12T01:54:03.095Z,0
2018-09-12T01:55:03.355Z,0
2018-09-12T01:56:03.355Z,0
2018-09-12T01:57:03.137Z,0
2018-09-12T01:58:02.824Z,0
2018-09-12T01:59:03.073Z,0
2018-09-12T02:00:03.067Z,0
2018-09-12T02:01:03.321Z,0
2018-09-12T02:02:03.306Z,0
2018-09-12T02:03:03.299Z,0
2018-09-12T02:04:03.046Z,0
2018-09-12T02:05:03.041Z,0
2018-09-12T02:06:03.290Z,0
2018-09-12T02:07:03.032Z,0
2018-09-12T02:08:03.019Z,0
2018-09-12T02:09:03.013Z,0
2018-09-12T02:10:02.743Z,0
2018-09-12T02:11:03.247Z,0
2018-09-12T02:12:02.998Z,0
2018-09-12T02:13:03.252Z,0
2018-09-12T02:14:02.730Z,0
2018-09-12T02:15:03.233Z,0
2018-09-12T02:16:03.238Z,0
2018-09-12T02:17:03.016Z,0
2018-09-12T02:18:02.963Z,0
2018-09-12T02:19:02.956Z,0
2018-09-12T02:20:03.200Z,0
2018-09-12T02:21:02.696Z,0
2018-09-12T02:22:02.691Z,0
2018-09-12T02:23:02.936Z,0
2018-09-12T02:24:03.190Z,0
2018-09-12T02:25:03.174Z,0
2018-09-12T02:26:03.176Z,0
2018-09-12T02:27:03.164Z,0
2018-09-12T02:28:02.643Z,0
2018-09-12T02:29:02.637Z,0
2018-09-12T02:30:03.219Z,0
2018-09-12T02:31:03.142Z,0
2018-09-12T02:32:03.137Z,0
2018-09-12T02:33:03.130Z,0
2018-09-12T02:34:02.882Z,0
2018-09-12T02:35:02.875Z,0
2018-09-12T02:36:02.854Z,0
2018-09-12T02:37:02.862Z,0
2018-09-12T02:38:02.842Z,0
2018-09-12T02:39:02.840Z,0
2018-09-12T02:40:02.834Z,0
2018-09-12T02:41:02.833Z,0
2018-09-12T02:42:03.072Z,0
2018-09-12T02:43:02.557Z,0
2018-09-12T02:44:02.823Z,0
2018-09-12T02:45:03.063Z,0
2018-09-12T02:46:03.058Z,0
2018-09-12T02:47:03.048Z,0
2018-09-12T02:48:03.060Z,0
2018-09-12T02:49:02.524Z,0
2018-09-12T02:50:03.037Z,0
2018-09-12T02:51:03.029Z,0
2018-09-12T02:52:02.767Z,0
2018-09-12T02:53:02.754Z,0
2018-09-12T02:54:03.001Z,0
2018-09-12T02:55:03.000Z,0
2018-09-12T02:56:02.474Z,0
2018-09-12T02:57:02.995Z,0
2018-09-12T02:58:02.719Z,0
2018-09-12T02:59:02.985Z,0
2018-09-12T03:00:02.983Z,0
2018-09-12T03:01:02.955Z,0
2018-09-12T03:02:02.977Z,0
2018-09-12T03:03:02.690Z,0
2018-09-12T03:04:02.945Z,0
2018-09-12T03:05:02.935Z,0
2018-09-12T03:06:02.980Z,0
2018-09-12T03:07:02.157Z,0
2018-09-12T03:08:03.672Z,0
2018-09-12T03:09:02.451Z,0
2018-09-12T03:10:02.675Z,0
2018-09-12T03:11:02.137Z,0
2018-09-12T03:12:02.898Z,0
2018-09-12T03:13:02.886Z,0
2018-09-12T03:14:02.882Z,0
2018-09-12T03:15:02.880Z,0
2018-09-12T03:16:02.869Z,0
2018-09-12T03:17:02.863Z,0
2018-09-12T03:18:02.867Z,0
2018-09-12T03:19:02.668Z,0
2018-09-12T03:20:02.579Z,0
2018-09-12T03:21:04.127Z,0
2018-09-12T03:22:02.590Z,0
2018-09-12T03:23:02.564Z,0
2018-09-12T03:24:02.295Z,0
2018-09-12T03:25:02.549Z,0
2018-09-12T03:26:02.555Z,0
2018-09-12T03:27:02.274Z,0
2018-09-12T03:28:02.529Z,0
2018-09-12T03:29:02.788Z,0
2018-09-12T03:30:02.544Z,0
2018-09-12T03:31:02.782Z,0
2018-09-12T03:32:02.511Z,0
2018-09-12T03:33:02.760Z,0
2018-09-12T03:34:02.748Z,0
2018-09-12T03:35:02.768Z,0
2018-09-12T03:36:02.731Z,0
2018-09-12T03:37:02.469Z,0
2018-09-12T03:38:01.952Z,0
2018-09-12T03:39:02.716Z,0
2018-09-12T03:40:02.187Z,0
2018-09-12T03:41:02.691Z,0
2018-09-12T03:42:02.691Z,0
2018-09-12T03:43:02.694Z,0
2018-09-12T03:44:02.414Z,0
2018-09-12T03:45:02.410Z,0
2018-09-12T03:46:02.146Z,0
2018-09-12T03:47:02.641Z,0
2018-09-12T03:48:02.702Z,0
2018-09-12T03:49:02.378Z,0
2018-09-12T03:50:02.637Z,0
2018-09-12T03:51:02.362Z,0
2018-09-12T03:52:02.366Z,0
2018-09-12T03:53:02.363Z,0
2018-09-12T03:54:02.601Z,0
2018-09-12T03:55:02.339Z,0
2018-09-12T03:56:02.321Z,0
2018-09-12T03:57:02.584Z,0
2018-09-12T03:58:02.572Z,0
2018-09-12T03:59:02.057Z,0
2018-09-12T04:00:02.043Z,0
2018-09-12T04:01:02.545Z,0
2018-09-12T04:02:02.284Z,0
2018-09-12T04:03:02.869Z,0
2018-09-12T04:04:02.527Z,0
2018-09-12T04:05:02.516Z,0
2018-09-12T04:06:02.265Z,0
2018-09-12T04:07:02.528Z,0
2018-09-12T04:08:02.515Z,0
2018-09-12T04:09:02.519Z,0
2018-09-12T04:10:02.489Z,0
2018-09-12T04:11:02.482Z,0
2018-09-12T04:12:02.463Z,0
2018-09-12T04:13:02.466Z,0
2018-09-12T04:14:02.196Z,0
2018-09-12T04:15:02.192Z,0
2018-09-12T04:16:02.179Z,0
2018-09-12T04:17:02.904Z,0
2018-09-12T04:18:02.179Z,0
2018-09-12T04:19:02.158Z,0
2018-09-12T04:20:02.405Z,0
2018-09-12T04:21:02.153Z,0
2018-09-12T04:22:01.889Z,0
2018-09-12T04:23:01.620Z,0
2018-09-12T04:24:02.392Z,0
2018-09-12T04:25:02.371Z,0
2018-09-12T04:26:02.377Z,0
2018-09-12T04:27:02.374Z,0
2018-09-12T04:28:01.841Z,0
2018-09-12T04:29:02.361Z,0
2018-09-12T04:30:02.339Z,0
2018-09-12T04:31:02.324Z,0
2018-09-12T04:32:02.323Z,0
2018-09-12T04:33:02.068Z,0
2018-09-12T04:34:02.303Z,0
2018-09-12T04:35:02.316Z,0
2018-09-12T04:36:01.775Z,0
2018-09-12T04:37:02.023Z,0
2018-09-12T04:38:02.282Z,0
2018-09-12T04:39:02.009Z,5
2018-09-12T04:40:02.277Z,5
2018-09-12T04:41:02.257Z,5
2018-09-12T04:42:02.245Z,5
2018-09-12T04:43:02.489Z,5
2018-09-12T04:44:01.720Z,5
2018-09-12T04:45:01.709Z,5
2018-09-12T04:46:01.700Z,10
2018-09-12T04:47:02.215Z,10
2018-09-12T04:48:02.203Z,10
2018-09-12T04:49:01.679Z,10
2018-09-12T04:50:01.934Z,10
2018-09-12T04:51:02.194Z,10
2018-09-12T04:52:01.921Z,15
2018-09-12T04:53:02.170Z,15
2018-09-12T04:54:01.899Z,15
2018-09-12T04:55:01.640Z,15
2018-09-12T04:56:01.628Z,15
2018-09-12T04:57:01.619Z,20
2018-09-12T04:58:02.123Z,20
2018-09-12T04:59:01.859Z,20
2018-09-12T05:00:01.707Z,20
2018-09-12T05:01:02.115Z,20
2018-09-12T05:02:02.115Z,25
2018-09-12T05:03:01.581Z,25
2018-09-12T05:04:01.826Z,25
2018-09-12T05:05:01.818Z,25
2018-09-12T05:06:01.565Z,25
2018-09-12T05:07:01.819Z,30
2018-09-12T05:08:01.802Z,30
2018-09-12T05:09:01.814Z,30
2018-09-12T05:10:02.092Z,30
2018-09-12T05:11:02.027Z,30
2018-09-12T05:12:01.758Z,30
2018-09-12T05:13:01.802Z,35
2018-09-12T05:14:01.747Z,35
2018-09-12T05:15:02.000Z,35
2018-09-12T05:16:02.136Z,35
2018-09-12T05:17:01.738Z,35
2018-09-12T05:18:01.978Z,35
2018-09-12T05:19:01.980Z,40
2018-09-12T05:20:01.714Z,40
2018-09-12T05:21:01.695Z,40
2018-09-12T05:22:01.706Z,40
2018-09-12T05:23:01.689Z,40
2018-09-12T05:24:01.942Z,40
2018-09-12T05:25:01.417Z,45
2018-09-12T05:26:01.921Z,45
2018-09-12T05:27:01.924Z,45
2018-09-12T05:28:01.905Z,45
2018-09-12T05:29:01.649Z,45
2018-09-12T05:30:01.629Z,45
2018-09-12T05:31:01.631Z,45
2018-09-12T05:32:01.366Z,50
2018-09-12T05:33:01.352Z,50
2018-09-12T05:34:01.614Z,50
2018-09-12T05:35:01.856Z,50
2018-09-12T05:36:01.844Z,50
2018-09-12T05:37:01.847Z,50
2018-09-12T05:38:01.849Z,50
2018-09-12T05:39:01.831Z,55
2018-09-12T05:40:01.560Z,55
2018-09-12T05:41:01.555Z,55
2018-09-12T05:42:01.815Z,55
2018-09-12T05:43:01.542Z,55
2018-09-12T05:44:01.795Z,55
2018-09-12T05:45:01.529Z,55
2018-09-12T05:46:01.783Z,55
2018-09-12T05:47:01.507Z,55
2018-09-12T05:48:01.770Z,60
2018-09-12T05:49:01.755Z,60
2018-09-12T05:50:01.539Z,60
2018-09-12T05:51:01.745Z,60
2018-09-12T05:52:01.742Z,60
2018-09-12T05:53:01.227Z,60
2018-09-12T05:54:01.473Z,60
2018-09-12T05:55:01.729Z,60
2018-09-12T05:56:01.721Z,60
2018-09-12T05:57:01.711Z,65
2018-09-12T05:58:01.440Z,65
2018-09-12T05:59:01.440Z,65
2018-09-12T06:00:01.690Z,65
2018-09-12T06:01:01.682Z,65
2018-09-12T06:02:01.423Z,65
2018-09-12T06:03:01.411Z,65
2018-09-12T06:04:01.670Z,65
2018-09-12T06:05:01.651Z,65
2018-09-12T06:06:01.656Z,65
2018-09-12T06:07:02.388Z,65
2018-09-12T06:08:01.641Z,65
2018-09-12T06:09:01.120Z,70
2018-09-12T06:10:01.379Z,70
2018-09-12T06:11:01.631Z,70
2018-09-12T06:12:01.621Z,70
2018-09-12T06:13:01.608Z,70
2018-09-12T06:14:01.686Z,70
2018-09-12T06:15:01.612Z,70
2018-09-12T06:16:01.598Z,70
2018-09-12T06:17:01.586Z,70
2018-09-12T06:18:01.325Z,70
2018-09-12T06:19:01.330Z,70
2018-09-12T06:20:01.310Z,70
2018-09-12T06:21:01.309Z,70
2018-09-12T06:22:01.313Z,75
2018-09-12T06:23:01.308Z,75
2018-09-12T06:24:01.597Z,75
2018-09-12T06:25:01.037Z,75
2018-09-12T06:26:01.545Z,75
2018-09-12T06:27:01.544Z,75
2018-09-12T06:28:01.277Z,75
2018-09-12T06:29:01.277Z,75
2018-09-12T06:30:01.525Z,75
2018-09-12T06:31:01.285Z,75
2018-09-12T06:32:01.260Z,75
2018-09-12T06:33:01.505Z,85
2018-09-12T06:34:01.503Z,80
2018-09-12T06:35:01.496Z,85
2018-09-12T06:36:01.494Z,80
2018-09-12T06:37:01.237Z,80
2018-09-12T06:38:01.389Z,80
2018-09-12T06:39:01.471Z,80
2018-09-12T06:40:00.697Z,85
2018-09-12T06:41:01.469Z,80
2018-09-12T06:42:01.197Z,80
2018-09-12T06:43:01.453Z,80
2018-09-12T06:44:00.937Z,80
2018-09-12T06:45:00.681Z,80
2018-09-12T06:46:01.184Z,80
2018-09-12T06:47:01.474Z,80
2018-09-12T06:48:01.183Z,80
2018-09-12T06:49:01.171Z,85
2018-09-12T06:50:01.164Z,85
2018-09-12T06:51:01.158Z,85
2018-09-12T06:52:01.416Z,85
2018-09-12T06:53:01.151Z,85
2018-09-12T06:54:01.154Z,85
2018-09-12T06:55:00.887Z,85
2018-09-12T06:56:01.142Z,85
2018-09-12T06:57:01.131Z,90
2018-09-12T06:58:01.139Z,90
2018-09-12T06:59:01.126Z,90
2018-09-12T07:00:01.127Z,90
2018-09-12T07:01:00.687Z,90
2018-09-12T07:02:00.856Z,90
2018-09-12T07:03:01.373Z,90
2018-09-12T07:04:01.379Z,90
2018-09-12T07:05:01.368Z,90
2018-09-12T07:06:01.353Z,90
2018-09-12T07:07:01.348Z,90
2018-09-12T07:08:01.351Z,95
2018-09-12T07:09:01.349Z,95
2018-09-12T07:10:01.084Z,95
2018-09-12T07:11:01.348Z,95
2018-09-12T07:12:01.349Z,95
2018-09-12T07:13:01.069Z,95
2018-09-12T07:14:01.350Z,95
2018-09-12T07:15:01.065Z,95
2018-09-12T07:16:01.316Z,95
2018-09-12T07:17:01.052Z,95
2018-09-12T07:18:01.061Z,95
2018-09-12T07:19:01.056Z,95
2018-09-12T07:20:01.295Z,95
2018-09-12T07:21:01.305Z,95
2018-09-12T07:22:01.035Z,100
2018-09-12T07:23:01.037Z,100
2018-09-12T07:24:01.294Z,95
2018-09-12T07:25:01.052Z,95
2018-09-12T07:26:01.284Z,95
2018-09-12T07:27:01.290Z,95
2018-09-12T07:28:01.300Z,100
2018-09-12T07:29:01.279Z,95
2018-09-12T07:30:00.499Z,95
2018-09-12T07:31:01.021Z,95
2018-09-12T07:32:01.013Z,95
2018-09-12T07:33:01.259Z,95
2018-09-12T07:34:00.744Z,100
2018-09-12T07:35:01.259Z,100
2018-09-12T07:36:00.740Z,100
2018-09-12T07:37:01.253Z,100
2018-09-12T07:38:01.256Z,100
2018-09-12T07:39:00.995Z,100
2018-09-12T07:40:00.995Z,100
2018-09-12T07:41:01.248Z,100
2018-09-12T07:42:00.984Z,100
2018-09-12T07:43:00.983Z,105
2018-09-12T07:44:00.976Z,105
2018-09-12T07:45:00.728Z,105
2018-09-12T07:46:00.749Z,105
2018-09-12T07:47:01.244Z,105
2018-09-12T07:48:00.974Z,105
2018-09-12T07:49:00.841Z,105
2018-09-12T07:50:00.711Z,105
2018-09-12T07:51:00.977Z,105
2018-09-12T07:52:00.445Z,110
2018-09-12T07:53:00.710Z,110
2018-09-12T07:54:00.703Z,110
2018-09-12T07:55:00.969Z,110
2018-09-12T07:56:01.238Z,110
2018-09-12T07:57:00.956Z,110
2018-09-12T07:58:00.957Z,110
2018-09-12T07:59:01.220Z,110
2018-09-12T08:00:01.550Z,110
2018-09-12T08:01:01.209Z,110
2018-09-12T08:02:00.949Z,110
2018-09-12T08:03:01.209Z,110
2018-09-12T08:04:01.209Z,110
2018-09-12T08:05:01.108Z,110
2018-09-12T08:06:01.203Z,110
2018-09-12T08:07:01.211Z,110
2018-09-12T08:08:01.195Z,110
2018-09-12T08:09:00.943Z,110
2018-09-12T08:10:01.201Z,110
2018-09-12T08:11:00.941Z,110
2018-09-12T08:12:00.962Z,110
2018-09-12T08:13:00.938Z,110
2018-09-12T08:14:01.195Z,110
2018-09-12T08:15:00.681Z,110
2018-09-12T08:16:00.422Z,110
2018-09-12T08:17:01.398Z,110
2018-09-12T08:18:00.938Z,110
2018-09-12T08:19:01.121Z,110
2018-09-12T08:20:01.194Z,110
2018-09-12T08:21:00.930Z,110
2018-09-12T08:22:01.192Z,110
2018-09-12T08:23:00.681Z,110
2018-09-12T08:24:00.965Z,110
2018-09-12T08:25:00.935Z,110
2018-09-12T08:26:01.290Z,110
2018-09-12T08:27:00.421Z,110
2018-09-12T08:28:01.184Z,110
2018-09-12T08:29:01.188Z,110
2018-09-12T08:30:00.932Z,110
2018-09-12T08:31:01.189Z,110
2018-09-12T08:32:00.942Z,110
2018-09-12T08:33:00.932Z,110
2018-09-12T08:34:00.935Z,110
2018-09-12T08:35:00.931Z,110
2018-09-12T08:36:01.198Z,110
2018-09-12T08:37:00.932Z,110
2018-09-12T08:38:01.192Z,110
2018-09-12T08:39:00.934Z,110
2018-09-12T08:40:00.942Z,110
2018-09-12T08:41:00.673Z,110
2018-09-12T08:42:01.207Z,110
2018-09-12T08:43:00.688Z,110
2018-09-12T08:44:01.188Z,110
2018-09-12T08:45:00.928Z,110
2018-09-12T08:46:00.939Z,110
2018-09-12T08:47:00.945Z,110
2018-09-12T08:48:01.189Z,110
2018-09-12T08:49:00.679Z,110
2018-09-12T08:50:00.942Z,110
2018-09-12T08:51:01.201Z,110
2018-09-12T08:52:01.188Z,110
2018-09-12T08:53:01.108Z,110
2018-09-12T08:54:01.192Z,110
2018-09-12T08:55:01.208Z,110
2018-09-12T08:56:00.677Z,110
2018-09-12T08:57:01.426Z,110
2018-09-12T08:58:00.939Z,110
2018-09-12T08:59:01.198Z,110
2018-09-12T09:00:00.943Z,110
2018-09-12T09:01:01.206Z,110
2018-09-12T09:02:00.933Z,110
2018-09-12T09:03:01.184Z,110
2018-09-12T09:04:01.406Z,110
2018-09-12T09:05:01.188Z,110
2018-09-12T09:06:01.198Z,110
2018-09-12T09:07:00.936Z,110
2018-09-12T09:08:00.681Z,110
2018-09-12T09:09:01.196Z,110
2018-09-12T09:10:01.191Z,110
2018-09-12T09:11:01.195Z,110
2018-09-12T09:12:01.198Z,110
2018-09-12T09:13:00.422Z,110
2018-09-12T09:14:01.196Z,110
2018-09-12T09:15:00.686Z,110
2018-09-12T09:16:00.946Z,110
2018-09-12T09:17:00.686Z,110
2018-09-12T09:18:01.201Z,110
2018-09-12T09:19:00.691Z,110
2018-09-12T09:20:01.202Z,110
2018-09-12T09:21:01.202Z,110
2018-09-12T09:22:00.687Z,110
2018-09-12T09:23:00.952Z,110
2018-09-12T09:24:01.212Z,110
2018-09-12T09:25:01.206Z,110
2018-09-12T09:26:01.209Z,110
2018-09-12T09:27:00.699Z,110
2018-09-12T09:28:00.951Z,110
2018-09-12T09:29:00.954Z,110
2018-09-12T09:30:01.218Z,110
2018-09-12T09:31:01.215Z,110
2018-09-12T09:32:00.954Z,110
2018-09-12T09:33:00.703Z,110
2018-09-12T09:34:00.962Z,110
2018-09-12T09:35:01.682Z,110
2018-09-12T09:36:01.221Z,110
2018-09-12T09:37:00.958Z,110
2018-09-12T09:38:00.967Z,110
2018-09-12T09:39:01.230Z,110
2018-09-12T09:40:01.228Z,110
2018-09-12T09:41:01.233Z,110
2018-09-12T09:42:00.714Z,110
2018-09-12T09:43:01.446Z,110
2018-09-12T09:44:01.129Z,110
2018-09-12T09:45:01.233Z,110
2018-09-12T09:46:01.000Z,110
2018-09-12T09:47:00.978Z,110
2018-09-12T09:48:01.753Z,110
2018-09-12T09:49:00.976Z,110
2018-09-12T09:50:01.231Z,110
2018-09-12T09:51:00.985Z,110
2018-09-12T09:52:00.987Z,110
2018-09-12T09:53:01.257Z,110
2018-09-12T09:54:01.241Z,110
2018-09-12T09:55:01.843Z,110
2018-09-12T09:56:01.253Z,110
2018-09-12T09:57:00.987Z,110
2018-09-12T09:58:00.989Z,110
2018-09-12T09:59:00.990Z,110
2018-09-12T10:00:00.485Z,110
2018-09-12T10:01:01.249Z,110
2018-09-12T10:02:00.742Z,110
2018-09-12T10:03:00.997Z,110
2018-09-12T10:04:01.258Z,110
2018-09-12T10:05:00.490Z,110
2018-09-12T10:06:01.696Z,110
2018-09-12T10:07:01.005Z,110
2018-09-12T10:08:00.754Z,110
2018-09-12T10:09:01.270Z,110
2018-09-12T10:10:01.016Z,115
2018-09-12T10:11:01.269Z,115
2018-09-12T10:12:01.940Z,110
2018-09-12T10:13:01.275Z,110
2018-09-12T10:14:01.053Z,110
2018-09-12T10:15:01.283Z,110
2018-09-12T10:16:01.274Z,110
2018-09-12T10:17:01.020Z,110
2018-09-12T10:18:01.279Z,110
2018-09-12T10:19:01.285Z,110
2018-09-12T10:20:01.030Z,110
2018-09-12T10:21:00.770Z,110
2018-09-12T10:22:01.034Z,110
2018-09-12T10:23:01.288Z,110
2018-09-12T10:24:01.039Z,110
2018-09-12T10:25:01.038Z,110
2018-09-12T10:26:01.291Z,110
2018-09-12T10:27:00.788Z,110
2018-09-12T10:28:01.303Z,110
2018-09-12T10:29:01.318Z,110
2018-09-12T10:30:01.047Z,110
2018-09-12T10:31:01.044Z,110
2018-09-12T10:32:01.054Z,110
2018-09-12T10:33:01.326Z,110
2018-09-12T10:34:01.056Z,110
2018-09-12T10:35:01.324Z,110
2018-09-12T10:36:01.056Z,110
2018-09-12T10:37:01.317Z,110
2018-09-12T10:38:01.318Z,110
2018-09-12T10:39:01.321Z,110
2018-09-12T10:40:01.318Z,110
2018-09-12T10:41:01.327Z,110
2018-09-12T10:42:01.065Z,110
2018-09-12T10:43:01.060Z,110
2018-09-12T10:44:01.337Z,110
2018-09-12T10:45:01.076Z,110
2018-09-12T10:46:01.075Z,110
2018-09-12T10:47:00.824Z,110
2018-09-12T10:48:00.826Z,105
2018-09-12T10:49:01.345Z,105
2018-09-12T10:50:00.570Z,105
2018-09-12T10:51:01.344Z,105
2018-09-12T10:52:01.085Z,105
2018-09-12T10:53:01.093Z,105
2018-09-12T10:54:01.096Z,110
2018-09-12T10:55:01.361Z,105
2018-09-12T10:56:01.354Z,105
2018-09-12T10:57:01.354Z,110
2018-09-12T10:58:00.852Z,110
2018-09-12T10:59:01.518Z,110
2018-09-12T11:00:01.105Z,110
2018-09-12T11:01:01.375Z,110
2018-09-12T11:02:01.116Z,110
2018-09-12T11:03:01.377Z,110
2018-09-12T11:04:00.881Z,110
2018-09-12T11:05:01.385Z,110
2018-09-12T11:06:01.144Z,105
2018-09-12T11:07:01.149Z,105
2018-09-12T11:08:01.144Z,110
2018-09-12T11:09:01.420Z,105
2018-09-12T11:10:01.575Z,105
2018-09-12T11:11:01.405Z,110
2018-09-12T11:12:01.144Z,110
2018-09-12T11:13:01.403Z,110
2018-09-12T11:14:01.411Z,105
2018-09-12T11:15:01.412Z,105
2018-09-12T11:16:00.893Z,105
2018-09-12T11:17:01.410Z,110
2018-09-12T11:18:01.152Z,110
2018-09-12T11:19:00.646Z,110
2018-09-12T11:20:01.162Z,110
2018-09-12T11:21:01.166Z,110
2018-09-12T11:22:00.651Z,110
2018-09-12T11:23:01.165Z,110
2018-09-12T11:24:01.834Z,110
2018-09-12T11:25:01.493Z,110
2018-09-12T11:26:01.435Z,110
2018-09-12T11:27:01.456Z,110
2018-09-12T11:28:01.179Z,110
2018-09-12T11:29:01.183Z,110
2018-09-12T11:30:00.928Z,110
2018-09-12T11:31:01.186Z,110
2018-09-12T11:32:01.448Z,110
2018-09-12T11:33:01.204Z,110
2018-09-12T11:34:00.939Z,110
2018-09-12T11:35:01.458Z,110
2018-09-12T11:36:01.204Z,105
2018-09-12T11:37:01.213Z,115
2018-09-12T11:38:00.948Z,110
2018-09-12T11:39:00.964Z,105
2018-09-12T11:40:01.011Z,105
2018-09-12T11:41:01.213Z,105
2018-09-12T11:42:01.474Z,105
2018-09-12T11:43:01.217Z,105
2018-09-12T11:44:01.491Z,105
2018-09-12T11:45:01.525Z,105
2018-09-12T11:46:00.966Z,105
2018-09-12T11:47:01.229Z,105
2018-09-12T11:48:01.488Z,105
2018-09-12T11:49:01.328Z,105
2018-09-12T11:50:01.498Z,105
2018-09-12T11:51:01.499Z,105
2018-09-12T11:52:01.498Z,105
2018-09-12T11:53:01.511Z,105
2018-09-12T11:54:01.243Z,105
2018-09-12T11:55:01.248Z,105
2018-09-12T11:56:00.994Z,105
2018-09-12T11:57:01.257Z,105
2018-09-12T11:58:01.510Z,105
2018-09-12T11:59:01.267Z,105
2018-09-12T12:00:01.257Z,105
2018-09-12T12:01:01.514Z,105
2018-09-12T12:02:01.526Z,105
2018-09-12T12:03:01.266Z,105
2018-09-12T12:04:01.264Z,105
2018-09-12T12:05:01.541Z,105
2018-09-12T12:06:01.595Z,105
2018-09-12T12:07:01.309Z,105
2018-09-12T12:08:01.531Z,105
2018-09-12T12:09:01.276Z,105
2018-09-12T12:10:01.551Z,105
2018-09-12T12:11:01.536Z,105
2018-09-12T12:12:01.026Z,105
2018-09-12T12:13:01.034Z,105
2018-09-12T12:14:01.544Z,105
2018-09-12T12:15:01.544Z,105
2018-09-12T12:16:01.291Z,105
2018-09-12T12:17:01.303Z,105
2018-09-12T12:18:01.040Z,105
2018-09-12T12:19:01.559Z,105
2018-09-12T12:20:01.045Z,105
2018-09-12T12:21:01.047Z,105
2018-09-12T12:22:01.317Z,100
2018-09-12T12:23:01.350Z,100
2018-09-12T12:24:01.576Z,100
2018-09-12T12:25:01.588Z,100
2018-09-12T12:26:01.330Z,100
2018-09-12T12:27:01.323Z,100
2018-09-12T12:28:01.332Z,100
2018-09-12T12:29:01.070Z,100
2018-09-12T12:30:01.590Z,100
2018-09-12T12:31:01.120Z,100
2018-09-12T12:32:01.601Z,100
2018-09-12T12:33:01.601Z,100
2018-09-12T12:34:01.603Z,100
2018-09-12T12:35:01.601Z,100
2018-09-12T12:36:01.084Z,100
2018-09-12T12:37:01.102Z,100
2018-09-12T12:38:01.352Z,100
2018-09-12T12:39:01.355Z,100
2018-09-12T12:40:01.610Z,100
2018-09-12T12:41:01.102Z,100
2018-09-12T12:42:01.641Z,100
2018-09-12T12:43:01.633Z,100
2018-09-12T12:44:01.623Z,100
2018-09-12T12:45:01.374Z,100
2018-09-12T12:46:01.111Z,100
2018-09-12T12:47:01.374Z,100
2018-09-12T12:48:01.376Z,100
2018-09-12T12:49:01.118Z,100
2018-09-12T12:50:01.127Z,100
2018-09-12T12:51:01.125Z,100
2018-09-12T12:52:01.125Z,100
2018-09-12T12:53:01.387Z,100
2018-09-12T12:54:01.640Z,100
2018-09-12T12:55:01.653Z,100
2018-09-12T12:56:01.134Z,100
2018-09-12T12:57:01.391Z,100
2018-09-12T12:58:01.650Z,100
2018-09-12T12:59:01.670Z,100
2018-09-12T13:00:01.662Z,100
2018-09-12T13:01:01.659Z,100
2018-09-12T13:02:01.414Z,100
2018-09-12T13:03:01.670Z,100
2018-09-12T13:04:01.417Z,100
2018-09-12T13:05:01.674Z,100
2018-09-12T13:06:01.428Z,100
2018-09-12T13:07:01.418Z,100
2018-09-12T13:08:01.684Z,100
2018-09-12T13:09:01.424Z,100
2018-09-12T13:10:01.684Z,100
2018-09-12T13:11:01.691Z,100
2018-09-12T13:12:01.433Z,100
2018-09-12T13:13:01.430Z,100
2018-09-12T13:14:01.445Z,100
2018-09-12T13:15:01.452Z,100
2018-09-12T13:16:01.692Z,100
2018-09-12T13:17:01.695Z,100
2018-09-12T13:18:00.924Z,100
2018-09-12T13:19:01.447Z,100
2018-09-12T13:20:01.711Z,100
2018-09-12T13:21:01.709Z,100
2018-09-12T13:22:01.805Z,100
2018-09-12T13:23:01.722Z,100
2018-09-12T13:24:01.201Z,100
2018-09-12T13:25:01.741Z,100
2018-09-12T13:26:01.713Z,100
2018-09-12T13:27:01.722Z,100
2018-09-12T13:28:02.186Z,100
2018-09-12T13:29:01.474Z,100
2018-09-12T13:30:01.739Z,100
2018-09-12T13:31:01.474Z,100
2018-09-12T13:32:01.732Z,100
2018-09-12T13:33:01.736Z,100
2018-09-12T13:34:01.227Z,100
2018-09-12T13:35:01.495Z,100
2018-09-12T13:36:01.751Z,100
2018-09-12T13:37:01.489Z,100
2018-09-12T13:38:01.492Z,100
2018-09-12T13:39:01.751Z,100
2018-09-12T13:40:01.494Z,100
2018-09-12T13:41:01.501Z,100
2018-09-12T13:42:01.511Z,100
2018-09-12T13:43:01.771Z,100
2018-09-12T13:44:01.254Z,100
2018-09-12T13:45:01.511Z,100
2018-09-12T13:46:01.512Z,100
2018-09-12T13:47:01.518Z,100
2018-09-12T13:48:01.541Z,100
2018-09-12T13:49:01.772Z,100
2018-09-12T13:50:01.521Z,100
2018-09-12T13:51:01.526Z,100
2018-09-12T13:52:01.798Z,105
2018-09-12T13:53:01.534Z,105
2018-09-12T13:54:01.547Z,105
2018-09-12T13:55:01.801Z,105
2018-09-12T13:56:01.792Z,105
2018-09-12T13:57:01.279Z,105
2018-09-12T13:58:01.797Z,105
2018-09-12T13:59:01.546Z,105
2018-09-12T14:00:01.801Z,105
2018-09-12T14:01:01.543Z,105
2018-09-12T14:02:01.558Z,105
2018-09-12T14:03:01.298Z,105
2018-09-12T14:04:01.550Z,105
2018-09-12T14:05:01.556Z,105
2018-09-12T14:06:01.818Z,105
2018-09-12T14:07:01.827Z,105
2018-09-12T14:08:01.563Z,105
2018-09-12T14:09:02.115Z,105
2018-09-12T14:10:01.327Z,105
2018-09-12T14:11:01.846Z,105